Time;durP1;ratioP1;P1;durP2;ratioP2;P2;SDS_P1;SDS_P2;PMS_P1;PMS_P2;Temp;Humidity;BMP_temperature;BMP_pressure;BME280_temperature;BME280_humidity;BME280_pressure;Samples;Min_cycle;Max_cycle;Signal;HPM_P1;HPM_P2
2021/09/30 00:02:13;;;;;;;9.57;1.38;;;15.20;81.30;;;;;;5105447;27;20042;-63
2021/09/30 00:04:39;;;;;;;3.58;0.90;;;15.20;81.30;;;;;;5107054;27;20043;-63
2021/09/30 00:07:07;;;;;;;6.80;1.00;;;15.20;81.30;;;;;;5108007;27;21015;-63
2021/09/30 00:09:39;;;;;;;6.07;0.70;;;15.20;81.20;;;;;;5106321;27;20047;-63
2021/09/30 00:12:13;;;;;;;9.70;0.90;;;15.20;81.10;;;;;;5109130;27;20403;-63
2021/09/30 00:49:53;;;;;;;6.88;1.77;;;15.00;80.90;;;;;;5106174;27;20088;-69
2021/09/30 01:57:39;;;;;;;5.45;1.10;;;13.20;87.10;;;;;;5066837;28;20048;-68
2021/09/30 02:26:41;;;;;;;9.95;1.30;;;12.40;89.70;;;;;;5044283;28;20044;-71
2021/09/30 02:59:34;;;;;;;6.55;0.82;;;12.00;90.00;;;;;;5086230;28;20087;-69
2021/09/30 03:02:02;;;;;;;5.22;0.77;;;12.00;90.00;;;;;;5085510;28;20429;-69
2021/09/30 03:04:29;;;;;;;2.75;0.50;;;12.00;90.00;;;;;;5064798;28;20105;-70
2021/09/30 03:06:56;;;;;;;5.43;1.00;;;12.00;90.00;;;;;;5085637;28;20063;-69
2021/09/30 03:09:23;;;;;;;2.58;0.52;;;12.00;90.00;;;;;;5078588;28;20032;-70
2021/09/30 03:11:52;;;;;;;4.15;0.93;;;12.10;90.10;;;;;;5085372;28;20040;-69
2021/09/30 03:14:20;;;;;;;2.90;0.50;;;12.20;90.00;;;;;;5075715;28;20050;-69
2021/09/30 03:16:49;;;;;;;2.83;0.55;;;12.20;89.70;;;;;;5063763;28;20032;-69
2021/09/30 03:19:31;;;;;;;3.25;0.50;;;12.30;89.40;;;;;;5090813;28;20074;-68
2021/09/30 03:24:38;;;;;;;4.60;1.13;;;12.30;89.10;;;;;;5089801;28;20177;-68
2021/09/30 03:27:05;;;;;;;7.68;1.02;;;12.30;89.10;;;;;;5089250;28;20048;-69
2021/09/30 03:29:31;;;;;;;6.45;1.13;;;12.30;89.00;;;;;;5084317;28;20044;-68
2021/09/30 03:31:58;;;;;;;4.57;1.20;;;12.30;89.00;;;;;;5086258;28;20038;-68
2021/09/30 03:34:25;;;;;;;7.10;0.98;;;12.30;89.00;;;;;;5082861;28;20391;-68
2021/09/30 03:36:50;;;;;;;7.97;0.68;;;12.30;89.00;;;;;;5084825;28;20449;-74
2021/09/30 03:39:23;;;;;;;5.15;0.82;;;12.40;89.10;;;;;;5090745;28;20036;-74
2021/09/30 03:41:50;;;;;;;8.43;0.70;;;12.40;89.10;;;;;;5085299;28;20118;-74
2021/09/30 03:44:16;;;;;;;4.68;0.75;;;12.40;89.20;;;;;;5090041;28;20050;-75
2021/09/30 03:46:43;;;;;;;4.93;1.10;;;12.40;88.90;;;;;;5088576;28;20040;-75
2021/09/30 03:49:13;;;;;;;7.43;0.88;;;12.30;88.80;;;;;;5101370;27;20065;-76
2021/09/30 03:54:24;;;;;;;5.90;1.38;;;12.20;88.70;;;;;;5106893;27;20047;-75
2021/09/30 03:57:10;;;;;;;8.00;0.63;;;12.10;88.80;;;;;;5100259;28;20024;-68
2021/09/30 03:59:37;;;;;;;5.60;0.98;;;12.10;89.10;;;;;;5102886;27;20040;-68
2021/09/30 04:02:03;;;;;;;8.20;0.82;;;11.90;89.40;;;;;;5108865;27;20039;-68
2021/09/30 04:04:31;;;;;;;7.97;0.88;;;11.80;89.70;;;;;;5109444;27;20170;-68
2021/09/30 04:07:01;;;;;;;4.97;1.10;;;11.80;90.10;;;;;;5107605;27;20063;-68
2021/09/30 04:09:28;;;;;;;10.00;1.35;;;11.70;90.30;;;;;;5105391;27;20046;-68
2021/09/30 04:11:59;;;;;;;11.93;1.33;;;11.60;90.30;;;;;;5103861;27;20028;-68
2021/09/30 04:14:25;;;;;;;7.60;1.55;;;11.60;90.50;;;;;;5108504;27;20039;-67
2021/09/30 04:16:52;;;;;;;4.90;0.95;;;11.60;90.50;;;;;;5109717;27;20353;-68
2021/09/30 04:19:20;;;;;;;7.88;0.98;;;11.50;90.40;;;;;;5103973;27;20092;-68
2021/09/30 04:21:47;;;;;;;4.82;0.70;;;11.60;90.30;;;;;;5098937;27;20119;-68
2021/09/30 04:24:14;;;;;;;6.40;0.88;;;11.60;90.30;;;;;;5085174;27;20045;-67
2021/09/30 04:26:40;;;;;;;2.85;0.90;;;11.60;90.20;;;;;;5108022;27;20028;-70
2021/09/30 04:29:06;;;;;;;4.40;0.90;;;11.60;90.10;;;;;;5110752;27;20047;-70
2021/09/30 04:31:33;;;;;;;8.00;1.25;;;11.60;90.00;;;;;;5105609;27;20039;-70
2021/09/30 04:33:59;;;;;;;7.30;1.25;;;11.70;90.00;;;;;;5085575;27;20483;-70
2021/09/30 04:36:25;;;;;;;6.50;0.95;;;11.60;90.00;;;;;;5099558;27;20051;-69
2021/09/30 04:38:51;;;;;;;7.32;1.70;;;11.60;90.10;;;;;;5104449;27;20031;-70
2021/09/30 04:41:18;;;;;;;8.95;1.25;;;11.60;90.30;;;;;;5105959;27;20058;-69
2021/09/30 04:43:48;;;;;;;6.90;0.93;;;11.60;90.50;;;;;;5107529;27;20087;-69
2021/09/30 04:46:15;;;;;;;6.80;1.45;;;11.50;90.60;;;;;;5091032;27;20035;-69
2021/09/30 04:48:42;;;;;;;4.53;0.70;;;11.50;90.70;;;;;;5107275;27;20051;-69
2021/09/30 04:51:08;;;;;;;9.13;1.25;;;11.40;90.90;;;;;;5105454;27;20042;-69
2021/09/30 04:53:35;;;;;;;6.22;1.10;;;11.40;90.90;;;;;;5098477;27;20055;-69
2021/09/30 04:56:02;;;;;;;3.33;0.38;;;11.50;90.90;;;;;;5106649;27;20035;-69
2021/09/30 04:58:28;;;;;;;6.40;0.93;;;11.50;90.90;;;;;;5106273;27;20050;-67
2021/09/30 05:00:53;;;;;;;3.40;0.63;;;11.50;90.80;;;;;;5106833;27;20043;-68
2021/09/30 05:03:19;;;;;;;4.40;1.52;;;11.50;90.70;;;;;;5103271;27;20048;-68
2021/09/30 05:05:45;;;;;;;3.33;0.90;;;11.50;90.70;;;;;;5107639;27;20502;-75
2021/09/30 05:08:11;;;;;;;5.35;1.08;;;11.50;90.70;;;;;;5102075;27;20044;-75
2021/09/30 05:10:38;;;;;;;5.20;1.10;;;11.50;90.90;;;;;;5104358;27;20031;-75
2021/09/30 05:13:06;;;;;;;4.82;0.70;;;11.40;90.90;;;;;;5087564;28;20092;-75
2021/09/30 05:15:33;;;;;;;5.68;1.27;;;11.30;90.90;;;;;;5112459;27;20038;-75
2021/09/30 05:18:04;;;;;;;6.75;0.85;;;11.30;90.90;;;;;;5107031;27;20357;-75
2021/09/30 05:20:30;;;;;;;2.95;1.05;;;11.30;91.00;;;;;;5089567;27;20040;-76
2021/09/30 05:22:56;;;;;;;3.08;0.60;;;11.20;91.00;;;;;;5103256;27;20054;-76
2021/09/30 05:25:21;;;;;;;6.93;0.80;;;11.30;91.00;;;;;;5082535;28;20463;-76
2021/09/30 05:27:47;;;;;;;6.07;0.80;;;11.30;91.10;;;;;;5070657;28;20074;-76
2021/09/30 05:30:14;;;;;;;6.97;0.85;;;11.30;91.10;;;;;;5099590;28;20076;-75
2021/09/30 05:32:39;;;;;;;7.88;1.10;;;11.30;91.10;;;;;;5110151;27;20031;-75
2021/09/30 05:35:06;;;;;;;5.13;0.82;;;11.30;91.10;;;;;;5106792;27;20344;-70
2021/09/30 05:37:32;;;;;;;8.10;1.00;;;11.30;91.10;;;;;;5108384;27;20158;-76
2021/09/30 05:39:57;;;;;;;6.70;0.70;;;11.30;91.10;;;;;;5104523;27;20475;-76
2021/09/30 05:42:24;;;;;;;6.13;1.10;;;11.30;91.10;;;;;;5105780;27;20467;-70
2021/09/30 05:44:51;;;;;;;3.72;0.70;;;11.30;91.20;;;;;;5106053;27;20395;-71
2021/09/30 05:47:17;;;;;;;4.90;0.98;;;11.30;91.20;;;;;;5103131;27;20040;-76
2021/09/30 05:49:43;;;;;;;5.45;0.68;;;11.30;91.20;;;;;;5106957;27;20134;-76
2021/09/30 05:52:08;;;;;;;3.78;0.80;;;11.20;91.20;;;;;;5104683;27;20043;-69
2021/09/30 05:54:34;;;;;;;6.65;0.90;;;11.20;91.20;;;;;;5105320;27;20364;-68
2021/09/30 05:57:00;;;;;;;6.35;0.90;;;11.20;91.20;;;;;;5096768;28;20043;-73
2021/09/30 05:59:26;;;;;;;6.57;1.27;;;11.20;91.30;;;;;;5106410;27;20050;-74
2021/09/30 06:12:30;;;;;;;4.82;0.80;;;11.50;92.10;;;;;;5100030;27;20123;-62
2021/09/30 06:14:56;;;;;;;5.95;0.85;;;11.80;91.80;;;;;;5100279;27;20031;-62
2021/09/30 06:17:23;;;;;;;6.10;1.42;;;12.00;91.90;;;;;;5106140;27;20393;-63
2021/09/30 06:19:49;;;;;;;5.22;1.13;;;12.30;91.80;;;;;;5104331;27;20046;-63
2021/09/30 06:22:15;;;;;;;6.88;0.80;;;12.50;91.80;;;;;;5103676;27;20043;-62
2021/09/30 06:24:41;;;;;;;5.75;0.80;;;12.60;91.50;;;;;;5096539;28;20031;-62
2021/09/30 06:27:07;;;;;;;7.53;1.05;;;12.80;91.60;;;;;;5106475;27;20038;-62
2021/09/30 06:29:32;;;;;;;4.65;0.70;;;13.00;91.50;;;;;;5099384;28;20047;-63
2021/09/30 06:31:58;;;;;;;4.93;0.60;;;13.40;91.60;;;;;;5104956;27;20031;-63
2021/09/30 06:34:25;;;;;;;6.63;1.08;;;13.80;91.30;;;;;;5103396;28;20047;-65
2021/09/30 06:36:50;;;;;;;6.10;1.10;;;14.00;90.80;;;;;;5078152;28;22272;-64
2021/09/30 06:39:16;;;;;;;6.85;0.90;;;14.30;90.90;;;;;;5101467;27;20059;-65
2021/09/30 06:41:42;;;;;;;4.40;0.90;;;14.50;90.50;;;;;;5106445;28;20035;-67
2021/09/30 06:44:08;;;;;;;3.42;0.95;;;14.60;90.00;;;;;;5063820;28;20050;-62
2021/09/30 06:46:34;;;;;;;3.45;0.85;;;14.80;90.00;;;;;;5101382;28;20036;-63
2021/09/30 06:48:59;;;;;;;4.05;1.15;;;15.40;89.20;;;;;;5106719;27;20052;-75
2021/09/30 06:51:25;;;;;;;5.03;0.80;;;15.60;85.70;;;;;;5106605;27;20043;-71
2021/09/30 06:53:51;;;;;;;4.13;0.70;;;15.60;84.40;;;;;;5108728;27;20095;-71
2021/09/30 06:56:20;;;;;;;6.47;0.80;;;15.40;83.70;;;;;;5082991;27;20036;-70
2021/09/30 06:58:46;;;;;;;10.63;1.48;;;15.40;83.70;;;;;;5095544;27;20121;-69
2021/09/30 07:01:13;;;;;;;8.95;1.20;;;15.20;83.40;;;;;;5108212;27;20104;-69
2021/09/30 07:03:39;;;;;;;3.70;0.93;;;15.10;83.30;;;;;;5105087;27;20163;-69
2021/09/30 07:06:06;;;;;;;8.98;1.48;;;15.10;83.70;;;;;;5107572;27;20119;-70
2021/09/30 07:08:32;;;;;;;8.70;1.25;;;15.10;83.60;;;;;;5107064;27;20035;-70
2021/09/30 07:10:57;;;;;;;16.10;7.88;;;15.10;83.80;;;;;;5104522;27;20624;-70
2021/09/30 07:13:25;;;;;;;18.30;9.93;;;15.10;84.60;;;;;;5107809;27;20032;-69
2021/09/30 07:15:51;;;;;;;5.65;1.40;;;15.30;84.70;;;;;;5095533;27;20066;-70
2021/09/30 07:18:18;;;;;;;6.20;1.10;;;15.60;84.00;;;;;;5107886;27;20070;-69
2021/09/30 07:21:00;;;;;;;5.97;1.17;;;15.70;83.10;;;;;;5085526;27;20169;-68
2021/09/30 07:23:26;;;;;;;7.40;1.38;;;15.80;82.40;;;;;;5110708;27;20044;-68
2021/09/30 07:25:51;;;;;;;6.85;1.70;;;15.70;82.60;;;;;;5108231;27;20513;-72
2021/09/30 07:28:19;;;;;;;7.07;1.75;;;15.80;83.20;;;;;;5108041;27;20035;-68
2021/09/30 07:30:46;;;;;;;4.93;1.02;;;16.00;83.10;;;;;;5082262;28;20039;-67
2021/09/30 07:33:12;;;;;;;6.00;1.15;;;16.20;82.10;;;;;;5106618;27;20048;-69
2021/09/30 07:35:38;;;;;;;7.20;1.33;;;16.30;81.50;;;;;;5102141;27;20043;-65
2021/09/30 07:38:04;;;;;;;8.52;1.80;;;16.40;80.80;;;;;;5109422;27;20063;-65
2021/09/30 07:40:31;;;;;;;11.07;1.20;;;16.50;80.50;;;;;;5105761;27;20048;-73
2021/09/30 07:42:58;;;;;;;9.75;1.42;;;16.50;80.40;;;;;;5108852;27;20038;-73
2021/09/30 07:45:24;;;;;;;4.65;1.35;;;16.60;80.40;;;;;;5112858;27;20063;-73
2021/09/30 07:47:50;;;;;;;5.72;1.30;;;16.70;80.20;;;;;;5105462;27;20131;-64
2021/09/30 07:50:16;;;;;;;6.30;1.23;;;16.70;79.90;;;;;;5110896;27;20047;-64
2021/09/30 07:52:42;;;;;;;9.43;1.55;;;16.80;80.20;;;;;;5109065;27;21771;-64
2021/09/30 07:55:09;;;;;;;12.00;1.67;;;16.90;79.40;;;;;;5108188;27;20093;-64
2021/09/30 07:57:34;;;;;;;6.78;1.10;;;17.10;78.50;;;;;;5107862;27;20035;-65
2021/09/30 08:00:00;;;;;;;5.68;1.20;;;17.10;77.90;;;;;;5103321;27;20044;-64
2021/09/30 08:02:26;;;;;;;4.93;1.33;;;17.20;78.00;;;;;;5099115;27;20411;-71
2021/09/30 08:04:51;;;;;;;7.45;1.55;;;17.30;77.90;;;;;;5095558;27;20070;-71
2021/09/30 08:07:17;;;;;;;8.30;1.33;;;17.30;78.00;;;;;;5105456;27;20040;-73
2021/09/30 08:09:43;;;;;;;7.93;1.30;;;17.40;77.20;;;;;;5092959;27;20896;-73
2021/09/30 08:12:09;;;;;;;6.38;1.13;;;17.50;76.60;;;;;;5107664;27;20064;-72
2021/09/30 08:14:35;;;;;;;7.60;1.38;;;17.50;76.50;;;;;;5108172;27;20129;-71
2021/09/30 08:17:03;;;;;;;10.20;1.20;;;17.60;75.70;;;;;;5106480;27;20395;-72
2021/09/30 08:19:29;;;;;;;8.07;1.30;;;17.80;76.00;;;;;;5092127;27;20506;-73
2021/09/30 08:21:54;;;;;;;4.85;1.13;;;17.90;75.80;;;;;;5100045;27;20084;-71
2021/09/30 08:24:20;;;;;;;7.63;1.33;;;18.10;75.90;;;;;;5099693;27;20908;-71
2021/09/30 08:26:47;;;;;;;5.97;1.20;;;18.20;75.00;;;;;;5080881;27;20499;-71
2021/09/30 08:29:15;;;;;;;9.13;2.00;;;18.30;75.40;;;;;;5106854;27;20040;-72
2021/09/30 08:31:41;;;;;;;5.68;1.33;;;18.40;74.00;;;;;;5104691;27;20065;-72
2021/09/30 08:34:06;;;;;;;7.28;1.20;;;18.40;73.60;;;;;;5107370;27;20044;-72
2021/09/30 08:36:33;;;;;;;8.27;1.42;;;18.40;73.50;;;;;;5098743;27;20110;-72
2021/09/30 08:39:03;;;;;;;14.57;2.05;;;18.40;73.40;;;;;;5102632;27;20229;-72
2021/09/30 08:41:29;;;;;;;11.40;1.60;;;18.50;73.60;;;;;;5111136;27;20043;-73
2021/09/30 08:43:55;;;;;;;7.97;1.33;;;18.50;73.20;;;;;;5112016;27;20054;-72
2021/09/30 08:46:21;;;;;;;5.57;1.10;;;18.60;73.00;;;;;;5098231;27;20049;-72
2021/09/30 08:48:47;;;;;;;8.68;1.33;;;18.70;73.20;;;;;;5105395;27;20040;-72
2021/09/30 08:51:15;;;;;;;7.63;1.65;;;18.70;72.70;;;;;;5108549;27;20044;-73
2021/09/30 08:53:42;;;;;;;9.25;1.63;;;18.70;72.10;;;;;;5110696;27;20046;-72
2021/09/30 08:56:08;;;;;;;9.00;2.20;;;18.70;72.10;;;;;;5105763;27;20031;-72
2021/09/30 08:58:35;;;;;;;9.23;1.55;;;18.80;72.40;;;;;;5105581;27;20155;-71
2021/09/30 09:01:03;;;;;;;10.65;2.30;;;18.80;72.00;;;;;;5106149;27;20043;-71
2021/09/30 09:03:39;;;;;;;9.45;1.63;;;18.80;71.20;;;;;;5112300;27;20537;-64
2021/09/30 09:06:10;;;;;;;12.48;2.22;;;18.80;70.90;;;;;;5101511;27;20475;-72
2021/09/30 09:08:36;;;;;;;7.80;1.85;;;18.70;70.80;;;;;;5102591;27;20042;-72
2021/09/30 09:11:05;;;;;;;5.60;1.30;;;18.70;70.50;;;;;;5105252;27;20120;-72
2021/09/30 09:13:31;;;;;;;7.93;1.50;;;18.60;71.10;;;;;;5110523;27;20042;-72
2021/09/30 09:16:02;;;;;;;7.72;1.83;;;18.70;71.40;;;;;;5104267;27;20038;-73
2021/09/30 09:18:35;;;;;;;8.45;1.75;;;18.70;70.80;;;;;;5080237;27;20070;-72
2021/09/30 09:21:06;;;;;;;11.25;1.60;;;18.80;70.60;;;;;;5107947;27;20391;-71
2021/09/30 09:23:38;;;;;;;9.00;1.23;;;18.80;70.80;;;;;;5108801;27;20051;-71
2021/09/30 09:26:11;;;;;;;8.35;1.77;;;18.80;70.50;;;;;;5105279;27;20066;-71
2021/09/30 09:28:38;;;;;;;11.13;1.63;;;18.80;70.40;;;;;;5107259;27;20127;-70
2021/09/30 09:31:04;;;;;;;10.60;1.40;;;18.80;70.30;;;;;;5109029;27;20064;-71
2021/09/30 09:33:34;;;;;;;6.43;1.33;;;18.90;69.90;;;;;;5103867;27;20036;-73
2021/09/30 09:36:06;;;;;;;11.80;1.60;;;18.90;69.50;;;;;;5104130;27;20075;-72
2021/09/30 09:38:53;;;;;;;7.10;1.38;;;18.90;69.30;;;;;;5107008;27;20051;-73
2021/09/30 09:41:33;;;;;;;5.15;1.40;;;19.10;69.80;;;;;;5093119;27;20091;-71
2021/09/30 09:44:00;;;;;;;11.98;1.50;;;19.00;69.00;;;;;;5103783;27;20386;-72
2021/09/30 09:46:34;;;;;;;9.45;1.63;;;19.00;69.00;;;;;;5103735;27;20148;-72
2021/09/30 09:49:04;;;;;;;9.55;1.55;;;18.90;68.80;;;;;;5106900;27;20124;-72
2021/09/30 09:51:38;;;;;;;11.30;2.20;;;18.80;69.20;;;;;;5097864;27;20422;-72
2021/09/30 09:54:26;;;;;;;9.52;1.23;;;18.80;69.60;;;;;;5096978;27;20067;-71
2021/09/30 09:56:51;;;;;;;7.03;1.17;;;18.70;69.50;;;;;;5105004;27;20480;-71
2021/09/30 09:59:40;;;;;;;3.75;1.17;;;18.70;69.60;;;;;;5093736;27;20093;-72
2021/09/30 10:02:06;;;;;;;10.50;2.40;;;18.60;69.70;;;;;;5100430;27;20047;-72
2021/09/30 10:04:32;;;;;;;9.82;2.38;;;18.30;69.60;;;;;;5109784;27;20519;-71
2021/09/30 10:06:59;;;;;;;8.60;1.27;;;17.90;69.60;;;;;;5096224;27;20516;-71
2021/09/30 10:09:25;;;;;;;8.48;1.33;;;17.70;69.80;;;;;;5092073;28;20047;-71
2021/09/30 10:11:51;;;;;;;5.43;1.42;;;17.70;69.90;;;;;;5095373;28;20102;-71
2021/09/30 10:14:18;;;;;;;8.52;1.20;;;17.80;68.80;;;;;;5097954;27;20130;-72
2021/09/30 10:16:48;;;;;;;4.90;0.93;;;18.00;68.30;;;;;;5105947;27;20051;-71
2021/09/30 10:19:15;;;;;;;5.68;0.90;;;18.10;67.40;;;;;;5101084;27;20040;-68
2021/09/30 10:21:41;;;;;;;2.90;0.82;;;18.10;66.40;;;;;;5107964;27;20132;-68
2021/09/30 10:24:17;;;;;;;5.35;0.98;;;18.20;66.20;;;;;;5091649;28;20035;-69
2021/09/30 10:26:53;;;;;;;6.10;1.35;;;18.30;66.30;;;;;;5085946;28;20043;-69
2021/09/30 10:29:38;;;;;;;10.88;1.60;;;18.50;66.30;;;;;;5102245;27;20044;-70
2021/09/30 10:32:05;;;;;;;10.63;2.20;;;18.60;66.90;;;;;;5104911;28;20040;-70
2021/09/30 10:34:35;;;;;;;7.10;1.08;;;18.60;66.40;;;;;;5098147;28;20099;-70
2021/09/30 10:37:17;;;;;;;8.60;1.23;;;18.60;66.00;;;;;;5104839;28;20036;-71
2021/09/30 10:39:43;;;;;;;9.53;1.90;;;18.60;66.20;;;;;;5103296;28;20441;-71
2021/09/30 10:42:40;;;;;;;5.07;1.23;;;18.50;65.90;;;;;;5102457;28;20036;-70
2021/09/30 10:45:11;;;;;;;8.07;2.20;;;18.40;65.70;;;;;;5105529;28;20118;-71
2021/09/30 10:47:37;;;;;;;4.80;1.10;;;18.30;65.40;;;;;;5104643;28;20040;-69
2021/09/30 10:50:03;;;;;;;5.75;1.38;;;18.30;65.70;;;;;;5106601;28;20052;-70
2021/09/30 10:52:52;;;;;;;6.47;1.27;;;18.40;66.30;;;;;;5108145;28;20051;-70
2021/09/30 10:55:17;;;;;;;4.05;0.77;;;18.50;66.10;;;;;;5103817;28;20035;-66
2021/09/30 10:57:44;;;;;;;9.50;1.50;;;18.50;65.70;;;;;;5103993;27;20487;-66
2021/09/30 11:00:17;;;;;;;6.95;1.13;;;18.50;65.40;;;;;;5102935;28;20039;-66
2021/09/30 11:03:01;;;;;;;6.78;1.23;;;18.40;65.40;;;;;;5097985;28;20076;-70
2021/09/30 11:05:31;;;;;;;7.07;1.30;;;18.30;65.20;;;;;;5078225;28;20048;-70
2021/09/30 11:08:27;;;;;;;5.07;1.30;;;18.20;65.90;;;;;;5104600;28;20082;-70
2021/09/30 11:11:01;;;;;;;6.63;1.02;;;18.20;65.90;;;;;;5111509;27;20356;-70
2021/09/30 11:13:32;;;;;;;6.93;1.25;;;18.20;65.50;;;;;;5095762;28;20047;-70
2021/09/30 11:16:10;;;;;;;3.85;0.75;;;18.20;65.30;;;;;;5108047;28;20206;-70
2021/09/30 11:18:43;;;;;;;3.58;0.80;;;18.20;65.30;;;;;;5091163;28;20078;-70
2021/09/30 11:21:27;;;;;;;2.50;0.68;;;18.20;64.70;;;;;;5104957;28;20108;-70
2021/09/30 11:23:54;;;;;;;5.82;1.20;;;18.20;64.90;;;;;;5102335;27;20043;-71
2021/09/30 11:26:20;;;;;;;5.82;1.27;;;18.20;64.70;;;;;;5102698;28;20071;-70
2021/09/30 11:28:46;;;;;;;9.13;1.52;;;18.20;65.00;;;;;;5108827;27;20660;-70
2021/09/30 11:31:26;;;;;;;5.60;1.17;;;18.30;64.60;;;;;;5101760;27;20047;-70
2021/09/30 11:33:54;;;;;;;4.13;1.00;;;18.30;62.40;;;;;;5107990;27;20047;-70
2021/09/30 11:36:27;;;;;;;7.70;1.45;;;18.20;62.90;;;;;;5110107;27;20046;-70
2021/09/30 11:38:57;;;;;;;6.45;0.90;;;18.20;62.60;;;;;;5109405;27;20048;-70
2021/09/30 11:41:34;;;;;;;7.45;1.05;;;18.20;62.70;;;;;;5109681;27;20521;-71
2021/09/30 11:44:00;;;;;;;5.90;1.20;;;18.30;63.30;;;;;;5108618;27;20039;-70
2021/09/30 11:46:38;;;;;;;4.55;0.90;;;18.20;63.20;;;;;;5111475;27;20095;-70
2021/09/30 11:49:05;;;;;;;7.32;0.88;;;18.20;61.70;;;;;;5111552;27;20047;-70
2021/09/30 11:51:35;;;;;;;3.42;0.80;;;18.20;61.50;;;;;;5097200;27;20067;-71
2021/09/30 11:54:02;;;;;;;8.75;1.83;;;18.10;60.70;;;;;;5109238;27;20069;-72
2021/09/30 11:56:28;;;;;;;9.43;1.40;;;18.00;60.90;;;;;;5107768;27;20073;-72
2021/09/30 11:59:05;;;;;;;7.80;1.20;;;17.90;61.10;;;;;;5093145;27;20118;-72
2021/09/30 12:01:37;;;;;;;5.25;1.20;;;18.00;61.30;;;;;;5105715;27;20043;-71
2021/09/30 12:04:07;;;;;;;5.93;0.87;;;18.00;61.70;;;;;;5111207;27;20088;-71
2021/09/30 12:06:50;;;;;;;2.83;0.77;;;18.10;61.90;;;;;;5094777;27;20040;-62
2021/09/30 12:09:16;;;;;;;7.65;0.95;;;18.10;64.30;;;;;;5102050;27;20454;-62
2021/09/30 12:11:55;;;;;;;4.68;0.73;;;18.20;64.20;;;;;;5109521;27;20043;-62
2021/09/30 12:14:22;;;;;;;6.75;1.08;;;18.20;63.00;;;;;;5109737;27;20055;-63
2021/09/30 12:17:02;;;;;;;7.68;1.13;;;18.30;63.70;;;;;;5108759;27;20039;-62
2021/09/30 12:19:33;;;;;;;4.10;0.98;;;18.20;63.90;;;;;;5109393;27;20387;-63
2021/09/30 12:22:00;;;;;;;5.72;1.40;;;18.10;65.10;;;;;;5098820;27;20436;-62
2021/09/30 12:24:27;;;;;;;5.00;0.93;;;18.00;64.30;;;;;;5109251;27;20043;-62
2021/09/30 12:26:54;;;;;;;5.03;0.93;;;18.00;64.40;;;;;;5102793;27;20035;-64
2021/09/30 12:29:20;;;;;;;14.77;7.65;;;17.80;65.20;;;;;;5105203;27;20427;-63
2021/09/30 12:32:01;;;;;;;11.27;1.90;;;17.80;65.60;;;;;;5099427;27;20079;-65
2021/09/30 12:34:27;;;;;;;8.68;1.27;;;17.80;65.70;;;;;;5086364;27;20043;-62
2021/09/30 12:36:53;;;;;;;5.53;1.35;;;17.80;66.60;;;;;;5105507;27;20044;-62
2021/09/30 12:39:27;;;;;;;5.22;1.27;;;17.90;66.90;;;;;;5068069;27;20130;-63
2021/09/30 12:41:54;;;;;;;7.07;1.52;;;18.00;65.70;;;;;;5107971;27;20131;-64
2021/09/30 12:44:20;;;;;;;8.85;1.55;;;18.00;65.20;;;;;;5104781;27;20048;-63
2021/09/30 12:46:54;;;;;;;4.68;1.20;;;18.10;65.70;;;;;;5104010;27;20048;-64
2021/09/30 12:49:20;;;;;;;3.70;0.98;;;18.20;66.20;;;;;;5105447;27;20051;-65
2021/09/30 12:51:46;;;;;;;7.50;0.93;;;18.30;64.80;;;;;;5105738;27;20820;-64
2021/09/30 12:54:12;;;;;;;7.10;1.27;;;18.20;64.80;;;;;;5104627;27;20857;-63
2021/09/30 12:56:38;;;;;;;5.97;1.00;;;18.10;65.70;;;;;;5106643;27;20456;-63
2021/09/30 12:59:14;;;;;;;14.10;3.90;;;18.00;65.60;;;;;;5111650;27;20051;-64
2021/09/30 13:01:43;;;;;;;14.32;5.45;;;17.90;66.20;;;;;;5103122;27;20043;-64
2021/09/30 13:04:22;;;;;;;9.80;3.45;;;17.90;67.40;;;;;;5107722;27;20036;-66
2021/09/30 13:06:57;;;;;;;39.47;18.27;;;17.80;67.00;;;;;;5105190;27;20044;-63
2021/09/30 13:09:25;;;;;;;19.95;9.77;;;17.80;69.20;;;;;;5108585;27;20043;-65
2021/09/30 13:11:55;;;;;;;29.63;11.95;;;17.80;69.90;;;;;;5102948;27;20093;-65
2021/09/30 13:14:30;;;;;;;69.30;30.38;;;17.80;68.70;;;;;;5109227;27;20042;-63
2021/09/30 13:17:23;;;;;;;31.08;14.68;;;17.80;68.20;;;;;;5097179;27;20027;-63
2021/09/30 13:20:06;;;;;;;7.20;2.30;;;17.80;68.70;;;;;;5105939;27;20063;-65
2021/09/30 13:22:37;;;;;;;7.70;2.97;;;17.90;68.70;;;;;;5106877;27;20032;-64
2021/09/30 13:25:07;;;;;;;5.78;1.90;;;17.80;67.30;;;;;;5107071;27;20036;-64
2021/09/30 13:27:35;;;;;;;7.00;1.98;;;17.80;67.40;;;;;;5105321;27;20058;-65
2021/09/30 13:30:05;;;;;;;7.53;1.67;;;17.80;67.50;;;;;;5099319;27;20035;-65
2021/09/30 13:32:32;;;;;;;12.50;2.47;;;17.80;68.00;;;;;;5108575;27;20087;-64
2021/09/30 13:34:58;;;;;;;7.38;1.70;;;17.70;67.30;;;;;;5103168;27;20036;-65
2021/09/30 13:37:24;;;;;;;10.43;1.45;;;17.70;67.90;;;;;;5082475;27;20062;-64
2021/09/30 13:39:54;;;;;;;7.65;1.10;;;17.70;67.50;;;;;;5105921;27;20695;-65
2021/09/30 13:42:20;;;;;;;7.25;1.65;;;17.60;67.00;;;;;;5106449;27;20043;-63
2021/09/30 13:44:46;;;;;;;8.15;1.40;;;17.50;67.40;;;;;;5107416;27;20050;-66
2021/09/30 13:47:12;;;;;;;6.85;1.95;;;17.40;67.80;;;;;;5106752;27;20089;-64
2021/09/30 13:49:38;;;;;;;4.95;1.27;;;17.30;68.30;;;;;;5105231;27;20058;-66
2021/09/30 13:52:04;;;;;;;6.18;0.90;;;17.20;68.70;;;;;;5106901;27;20051;-66
2021/09/30 13:54:29;;;;;;;6.15;1.20;;;17.10;68.40;;;;;;5091168;28;20035;-65
2021/09/30 13:56:55;;;;;;;6.78;1.10;;;17.10;68.90;;;;;;5107150;27;20040;-65
2021/09/30 13:59:21;;;;;;;7.18;1.10;;;17.00;68.70;;;;;;5102594;27;20107;-66
2021/09/30 14:01:47;;;;;;;6.68;1.20;;;16.90;68.90;;;;;;5107954;27;20047;-65
2021/09/30 14:04:12;;;;;;;8.95;1.95;;;16.90;69.50;;;;;;5109393;27;20047;-66
2021/09/30 14:06:38;;;;;;;9.23;2.80;;;16.80;69.90;;;;;;5106671;27;20450;-67
2021/09/30 14:09:04;;;;;;;19.23;8.25;;;16.80;71.50;;;;;;5103789;27;20093;-66
2021/09/30 14:11:29;;;;;;;13.95;3.83;;;16.80;72.90;;;;;;5096847;27;20039;-64
2021/09/30 14:13:55;;;;;;;7.68;1.42;;;16.90;73.00;;;;;;5108303;27;20035;-67
2021/09/30 14:16:24;;;;;;;7.35;2.35;;;16.90;72.10;;;;;;5106656;27;20055;-66
2021/09/30 14:18:51;;;;;;;8.18;1.75;;;16.80;72.00;;;;;;5080573;28;20054;-65
2021/09/30 14:21:17;;;;;;;9.25;1.58;;;16.70;71.90;;;;;;5108625;27;20044;-67
2021/09/30 14:23:43;;;;;;;9.52;1.33;;;16.60;72.40;;;;;;5109049;27;20391;-67
2021/09/30 14:26:09;;;;;;;9.10;1.83;;;16.40;71.90;;;;;;5077118;28;20032;-66
2021/09/30 14:28:35;;;;;;;7.68;1.27;;;16.30;73.00;;;;;;5090384;28;20065;-65
2021/09/30 14:31:01;;;;;;;7.80;1.83;;;16.30;73.10;;;;;;5105037;28;20126;-66
2021/09/30 14:33:29;;;;;;;5.45;2.05;;;16.30;72.70;;;;;;5104897;27;20051;-65
2021/09/30 14:35:55;;;;;;;5.45;1.20;;;16.30;72.70;;;;;;5080912;28;20610;-66
2021/09/30 14:38:22;;;;;;;6.13;1.20;;;16.20;72.70;;;;;;5103586;28;20036;-64
2021/09/30 14:40:49;;;;;;;4.53;1.35;;;16.20;73.40;;;;;;5101539;28;20177;-66
2021/09/30 14:43:17;;;;;;;6.88;1.73;;;16.10;73.50;;;;;;5103496;28;20055;-66
2021/09/30 14:45:44;;;;;;;6.05;1.23;;;16.20;73.60;;;;;;5097046;28;20048;-66
2021/09/30 14:48:10;;;;;;;13.23;1.85;;;16.20;73.10;;;;;;5102010;28;20091;-64
2021/09/30 14:50:36;;;;;;;11.52;1.40;;;16.10;72.50;;;;;;5105835;28;20070;-66
2021/09/30 14:53:01;;;;;;;6.18;1.05;;;16.00;73.00;;;;;;5107743;28;20082;-66
2021/09/30 14:55:27;;;;;;;11.07;1.42;;;15.90;72.70;;;;;;5103958;27;20386;-66
2021/09/30 14:57:54;;;;;;;4.90;1.30;;;16.00;73.90;;;;;;5106553;28;20043;-65
2021/09/30 15:00:19;;;;;;;7.70;1.20;;;16.00;73.90;;;;;;5104506;27;20047;-66
2021/09/30 15:02:45;;;;;;;7.03;1.27;;;15.90;73.50;;;;;;5101460;28;20717;-64
2021/09/30 15:05:11;;;;;;;5.55;1.25;;;15.80;73.80;;;;;;5103712;27;20135;-64
2021/09/30 15:07:37;;;;;;;5.07;1.30;;;15.80;73.90;;;;;;5105250;27;20094;-64
2021/09/30 15:10:04;;;;;;;7.22;1.50;;;15.80;74.10;;;;;;5107126;27;20032;-64
2021/09/30 15:12:30;;;;;;;5.40;1.10;;;15.60;74.50;;;;;;5098787;27;20043;-65
2021/09/30 15:14:55;;;;;;;6.65;1.30;;;15.60;75.10;;;;;;5105266;27;20100;-64
2021/09/30 15:19:52;;;;;;;6.38;1.23;;;15.40;75.90;;;;;;5109655;27;20368;-64
2021/09/30 15:22:18;;;;;;;12.38;1.38;;;15.30;76.10;;;;;;5110716;27;20046;-63
2021/09/30 15:24:44;;;;;;;7.95;1.83;;;15.20;76.70;;;;;;5103799;27;20111;-63
2021/09/30 15:27:11;;;;;;;9.20;1.60;;;15.20;76.60;;;;;;5109326;27;20040;-63
2021/09/30 15:29:37;;;;;;;10.88;1.40;;;15.10;76.80;;;;;;5102259;27;20436;-63
2021/09/30 15:32:03;;;;;;;7.75;1.38;;;15.10;77.00;;;;;;5111193;27;20051;-63
2021/09/30 15:34:30;;;;;;;7.63;1.38;;;15.10;77.30;;;;;;5107501;27;20505;-68
2021/09/30 15:36:56;;;;;;;6.90;1.35;;;15.10;77.30;;;;;;5082961;27;20594;-68
2021/09/30 15:39:22;;;;;;;6.65;1.23;;;15.10;78.20;;;;;;5109489;27;20036;-69
2021/09/30 15:41:49;;;;;;;5.82;1.83;;;15.10;78.30;;;;;;5104817;27;20047;-67
2021/09/30 15:44:18;;;;;;;8.05;1.38;;;15.00;78.30;;;;;;5094480;27;20503;-66
2021/09/30 15:46:46;;;;;;;6.10;1.42;;;15.00;78.40;;;;;;5126669;27;20040;-66
2021/09/30 15:49:12;;;;;;;5.00;1.10;;;14.90;79.30;;;;;;5102773;27;20132;-67